Disclaimer

Please do not use the information listed here in-flight or in-navigation, as they are not provided to us by the airports but are provided by volunteers, so they might be outdated.

Search


Regions


Airport information page

Radio informations:
Tower (TWR) - 122.1 MHz
Approach (APP) - 138.975 MHz

Airport informations:
Latitude: 47° 03' 12.00" N
Longitude: 002° 37' 57.00" E
Elevation: 580 feet - 177 meters
Operating hours: Remarks
Operating agency: Military
Timezone: UTC+1(+2DT) - Last Sunday in March to last Sunday in October
Fuel: Jet A1+, Jet A1 with icing inhibitor.

100/130 MIL Spec, low lead, aviation gasoline (BLUE)

Runway information:
06/24 - 11493 x 148 feet< - >3503 x 45 meters

Recent METARs:
LFOA 211630Z AUTO 07002KT 9999 FEW016 03/01 Q1013
LFOA 211700Z AUTO 04002KT 9000 NSC 02/01 Q1013
LFOA 211730Z AUTO 02003KT 6000 NSC 02/01 Q1013

Airport on the map: